GFA509 OMDB-OBBI
Flight info
| Callsign | GFA509 |
|---|---|
| Flight time | 0h 57m |
| Altitude | 26000 |
| Route | NABIX3F NABIX P699 ORMID M556 ORDIG ORDIG1 |
| Aircraft | A320/M-SDE3FGHIRWY/LB1 |
Departure
| Time | 2026-04-20 16:51 |
|---|---|
| Airport | Dubai International Airport (OMDB) |
Arrival
| Time | 2026-04-20 17:48 |
|---|---|
| Airport | Bahrain International Airport (OBBI) |
| Time | Latitude | Longitude | Altitude | Speed | Heading |
|---|---|---|---|---|---|
| 2026-04-20 16:27 | 25.25763 | 55.34687 | 23 ft | 0 kts | 213° |
| 2026-04-20 16:40 | 25.25773 | 55.34695 | 23 ft | 2 kts | 213° |
| 2026-04-20 16:40 | 25.25787 | 55.34705 | 24 ft | 2 kts | 213° |
| 2026-04-20 16:40 | 25.25802 | 55.34715 | 24 ft | 2 kts | 213° |
| 2026-04-20 16:41 | 25.25816 | 55.34725 | 26 ft | 2 kts | 213° |
| 2026-04-20 16:41 | 25.25831 | 55.34735 | 27 ft | 3 kts | 191° |
| 2026-04-20 16:41 | 25.25849 | 55.34735 | 24 ft | 3 kts | 154° |
| 2026-04-20 16:41 | 25.25863 | 55.34724 | 26 ft | 2 kts | 119° |
| 2026-04-20 16:42 | 25.25864 | 55.34723 | 26 ft | 0 kts | 121° |
| 2026-04-20 16:44 | 25.25863 | 55.34724 | 26 ft | 2 kts | 121° |
| 2026-04-20 16:44 | 25.25825 | 55.34794 | 24 ft | 18 kts | 122° |
| 2026-04-20 16:44 | 25.25753 | 55.34915 | 24 ft | 20 kts | 123° |
| 2026-04-20 16:45 | 25.25677 | 55.35055 | 20 ft | 22 kts | 119° |
| 2026-04-20 16:45 | 25.25715 | 55.35182 | 18 ft | 21 kts | 29° |
| 2026-04-20 16:45 | 25.25852 | 55.35277 | 16 ft | 24 kts | 32° |
| 2026-04-20 16:45 | 25.25978 | 55.35392 | 18 ft | 24 kts | 64° |
| 2026-04-20 16:46 | 25.25958 | 55.35587 | 18 ft | 28 kts | 118° |
| 2026-04-20 16:46 | 25.25850 | 55.35786 | 16 ft | 32 kts | 121° |
| 2026-04-20 16:46 | 25.25729 | 55.36006 | 19 ft | 35 kts | 122° |
| 2026-04-20 16:46 | 25.25597 | 55.36238 | 25 ft | 37 kts | 122° |
| 2026-04-20 16:47 | 25.25462 | 55.36484 | 23 ft | 38 kts | 120° |
| 2026-04-20 16:47 | 25.25324 | 55.36731 | 23 ft | 37 kts | 122° |
| 2026-04-20 16:47 | 25.25193 | 55.36968 | 28 ft | 35 kts | 119° |
| 2026-04-20 16:47 | 25.25069 | 55.37190 | 34 ft | 33 kts | 121° |
| 2026-04-20 16:48 | 25.24952 | 55.37404 | 39 ft | 32 kts | 123° |
| 2026-04-20 16:48 | 25.24834 | 55.37613 | 38 ft | 32 kts | 121° |
| 2026-04-20 16:48 | 25.24723 | 55.37815 | 39 ft | 13 kts | 122° |
| 2026-04-20 16:48 | 25.24684 | 55.37885 | 39 ft | 10 kts | 120° |
| 2026-04-20 16:49 | 25.24680 | 55.37952 | 40 ft | 12 kts | 66° |
| 2026-04-20 16:49 | 25.24747 | 55.38006 | 40 ft | 12 kts | 31° |
| 2026-04-20 16:49 | 25.24809 | 55.38016 | 40 ft | 9 kts | 317° |
| 2026-04-20 16:49 | 25.24837 | 55.37962 | 40 ft | 7 kts | 301° |
| 2026-04-20 16:50 | 25.24871 | 55.37902 | 39 ft | 18 kts | 302° |
| 2026-04-20 16:50 | 25.25074 | 55.37539 | 41 ft | 91 kts | 302° |
| 2026-04-20 16:50 | 25.25513 | 55.36752 | 29 ft | 148 kts | 301° |
| 2026-04-20 16:50 | 25.26122 | 55.35659 | 256 ft | 170 kts | 301° |
| 2026-04-20 16:51 | 25.26728 | 55.34562 | 911 ft | 168 kts | 301° |
| 2026-04-20 16:51 | 25.27341 | 55.33456 | 1554 ft | 169 kts | 302° |
| 2026-04-20 16:51 | 25.27970 | 55.32325 | 1989 ft | 180 kts | 302° |
| 2026-04-20 16:51 | 25.28646 | 55.31109 | 2390 ft | 189 kts | 302° |
| 2026-04-20 16:52 | 25.29153 | 55.29762 | 2900 ft | 193 kts | 279° |
| 2026-04-20 16:52 | 25.29048 | 55.28282 | 3306 ft | 204 kts | 251° |
| 2026-04-20 16:52 | 25.28442 | 55.26825 | 3774 ft | 210 kts | 246° |
| 2026-04-20 16:52 | 25.27810 | 55.25360 | 4318 ft | 212 kts | 246° |
| 2026-04-20 16:53 | 25.27177 | 55.23879 | 4854 ft | 214 kts | 247° |
| 2026-04-20 16:53 | 25.26540 | 55.22383 | 5376 ft | 216 kts | 247° |
| 2026-04-20 16:53 | 25.25895 | 55.20867 | 5822 ft | 224 kts | 248° |
| 2026-04-20 16:53 | 25.25207 | 55.19234 | 6037 ft | 243 kts | 250° |
| 2026-04-20 16:54 | 25.24867 | 55.17367 | 6303 ft | 255 kts | 275° |
| 2026-04-20 16:54 | 25.24986 | 55.15412 | 6853 ft | 260 kts | 277° |
| 2026-04-20 16:54 | 25.25111 | 55.13407 | 7503 ft | 262 kts | 277° |
| 2026-04-20 16:54 | 25.25235 | 55.11383 | 8163 ft | 265 kts | 277° |
| 2026-04-20 16:55 | 25.25361 | 55.09348 | 8822 ft | 267 kts | 277° |
| 2026-04-20 16:55 | 25.25491 | 55.07292 | 9485 ft | 269 kts | 278° |
| 2026-04-20 16:55 | 25.25620 | 55.05215 | 10109 ft | 271 kts | 278° |
| 2026-04-20 16:55 | 25.25747 | 55.03153 | 10695 ft | 273 kts | 278° |
| 2026-04-20 16:56 | 25.25877 | 55.01051 | 11302 ft | 275 kts | 278° |
| 2026-04-20 16:56 | 25.26009 | 54.98934 | 11907 ft | 277 kts | 278° |
| 2026-04-20 16:56 | 25.26141 | 54.96804 | 12510 ft | 278 kts | 278° |
| 2026-04-20 16:56 | 25.26273 | 54.94663 | 13109 ft | 280 kts | 278° |
| 2026-04-20 16:57 | 25.26407 | 54.92503 | 13695 ft | 283 kts | 278° |
| 2026-04-20 16:57 | 25.26539 | 54.90347 | 14204 ft | 285 kts | 277° |
| 2026-04-20 16:57 | 25.26674 | 54.88150 | 14728 ft | 286 kts | 277° |
| 2026-04-20 16:57 | 25.26763 | 54.86684 | 15075 ft | 287 kts | 277° |
| 2026-04-20 16:58 | 25.26903 | 54.84473 | 15584 ft | 289 kts | 280° |
| 2026-04-20 16:58 | 25.27191 | 54.82269 | 16094 ft | 290 kts | 282° |
| 2026-04-20 16:58 | 25.27529 | 54.80088 | 16603 ft | 292 kts | 283° |
| 2026-04-20 16:58 | 25.27894 | 54.77866 | 17113 ft | 294 kts | 283° |
| 2026-04-20 16:59 | 25.28267 | 54.75637 | 17614 ft | 296 kts | 283° |
| 2026-04-20 16:59 | 25.28647 | 54.73355 | 17916 ft | 309 kts | 282° |
| 2026-04-20 16:59 | 25.29044 | 54.70949 | 18051 ft | 327 kts | 282° |
| 2026-04-20 16:59 | 25.29457 | 54.68404 | 18180 ft | 344 kts | 282° |
| 2026-04-20 17:00 | 25.30326 | 54.62976 | 18433 ft | 375 kts | 281° |
| 2026-04-20 17:00 | 25.30778 | 54.60114 | 18784 ft | 381 kts | 281° |
| 2026-04-20 17:00 | 25.31232 | 54.57212 | 19239 ft | 385 kts | 281° |
| 2026-04-20 17:01 | 25.31690 | 54.54283 | 19729 ft | 388 kts | 281° |
| 2026-04-20 17:01 | 25.32153 | 54.51323 | 20221 ft | 390 kts | 281° |
| 2026-04-20 17:01 | 25.32619 | 54.48360 | 20724 ft | 393 kts | 281° |
| 2026-04-20 17:01 | 25.33085 | 54.45403 | 21209 ft | 396 kts | 281° |
| 2026-04-20 17:02 | 25.33558 | 54.42388 | 21698 ft | 398 kts | 281° |
| 2026-04-20 17:02 | 25.34032 | 54.39357 | 22176 ft | 401 kts | 280° |
| 2026-04-20 17:02 | 25.34509 | 54.36300 | 22653 ft | 403 kts | 280° |
| 2026-04-20 17:02 | 25.34988 | 54.33235 | 23110 ft | 406 kts | 280° |
| 2026-04-20 17:03 | 25.35463 | 54.30193 | 23539 ft | 408 kts | 280° |
| 2026-04-20 17:03 | 25.35949 | 54.27086 | 23916 ft | 410 kts | 280° |
| 2026-04-20 17:03 | 25.36435 | 54.23963 | 24288 ft | 412 kts | 280° |
| 2026-04-20 17:03 | 25.36922 | 54.20829 | 24663 ft | 414 kts | 280° |
| 2026-04-20 17:04 | 25.37411 | 54.17686 | 25028 ft | 416 kts | 279° |
| 2026-04-20 17:04 | 25.37901 | 54.14520 | 25387 ft | 418 kts | 279° |
| 2026-04-20 17:04 | 25.38392 | 54.11349 | 25735 ft | 419 kts | 279° |
| 2026-04-20 17:04 | 25.38885 | 54.08165 | 25836 ft | 417 kts | 279° |
| 2026-04-20 17:05 | 25.39372 | 54.05023 | 25863 ft | 411 kts | 279° |
| 2026-04-20 17:05 | 25.39854 | 54.01917 | 25861 ft | 409 kts | 279° |
| 2026-04-20 17:05 | 25.40327 | 53.98858 | 25862 ft | 408 kts | 279° |
| 2026-04-20 17:05 | 25.40807 | 53.95750 | 25865 ft | 408 kts | 279° |
| 2026-04-20 17:06 | 25.41284 | 53.92646 | 25859 ft | 408 kts | 279° |
| 2026-04-20 17:06 | 25.41758 | 53.89549 | 25862 ft | 408 kts | 279° |
| 2026-04-20 17:06 | 25.42231 | 53.86444 | 25861 ft | 408 kts | 279° |
| 2026-04-20 17:06 | 25.42701 | 53.83344 | 25862 ft | 408 kts | 279° |
| 2026-04-20 17:07 | 25.43165 | 53.80281 | 25862 ft | 408 kts | 279° |
| 2026-04-20 17:07 | 25.43636 | 53.77180 | 25859 ft | 408 kts | 279° |
| 2026-04-20 17:07 | 25.44110 | 53.74069 | 25860 ft | 408 kts | 279° |
| 2026-04-20 17:07 | 25.44583 | 53.70968 | 25856 ft | 408 kts | 279° |
| 2026-04-20 17:08 | 25.45053 | 53.67875 | 25856 ft | 408 kts | 279° |
| 2026-04-20 17:08 | 25.45520 | 53.64774 | 25855 ft | 408 kts | 279° |
| 2026-04-20 17:08 | 25.45980 | 53.61708 | 25854 ft | 408 kts | 279° |
| 2026-04-20 17:08 | 25.46448 | 53.58606 | 25857 ft | 408 kts | 279° |
| 2026-04-20 17:09 | 25.46918 | 53.55510 | 25855 ft | 408 kts | 279° |
| 2026-04-20 17:09 | 25.47388 | 53.52408 | 25854 ft | 408 kts | 279° |
| 2026-04-20 17:09 | 25.47857 | 53.49306 | 25854 ft | 408 kts | 279° |
| 2026-04-20 17:09 | 25.48323 | 53.46214 | 25853 ft | 408 kts | 279° |
| 2026-04-20 17:10 | 25.48787 | 53.43115 | 25855 ft | 408 kts | 279° |
| 2026-04-20 17:10 | 25.49249 | 53.40019 | 25854 ft | 408 kts | 279° |
| 2026-04-20 17:10 | 25.49713 | 53.36912 | 25854 ft | 408 kts | 279° |
| 2026-04-20 17:10 | 25.50169 | 53.33854 | 25857 ft | 408 kts | 279° |
| 2026-04-20 17:11 | 25.50632 | 53.30748 | 25855 ft | 407 kts | 279° |
| 2026-04-20 17:11 | 25.51095 | 53.27625 | 25862 ft | 417 kts | 279° |
| 2026-04-20 17:11 | 25.51572 | 53.24410 | 25862 ft | 428 kts | 279° |
| 2026-04-20 17:11 | 25.52060 | 53.21117 | 25864 ft | 439 kts | 279° |
| 2026-04-20 17:12 | 25.52562 | 53.17750 | 25861 ft | 448 kts | 279° |
| 2026-04-20 17:12 | 25.53075 | 53.14314 | 25862 ft | 456 kts | 279° |
| 2026-04-20 17:12 | 25.53594 | 53.10822 | 25862 ft | 462 kts | 279° |
| 2026-04-20 17:12 | 25.54115 | 53.07290 | 25862 ft | 467 kts | 279° |
| 2026-04-20 17:13 | 25.54632 | 53.03759 | 25861 ft | 471 kts | 279° |
| 2026-04-20 17:13 | 25.55156 | 53.00164 | 25858 ft | 474 kts | 279° |
| 2026-04-20 17:13 | 25.55683 | 52.96552 | 25858 ft | 476 kts | 279° |
| 2026-04-20 17:13 | 25.56267 | 52.92944 | 25853 ft | 476 kts | 284° |
| 2026-04-20 17:14 | 25.57392 | 52.89496 | 25856 ft | 476 kts | 296° |
| 2026-04-20 17:14 | 25.59064 | 52.86318 | 25859 ft | 477 kts | 301° |
| 2026-04-20 17:14 | 25.60806 | 52.83190 | 25855 ft | 477 kts | 301° |
| 2026-04-20 17:14 | 25.62524 | 52.80101 | 25858 ft | 477 kts | 301° |
| 2026-04-20 17:15 | 25.64261 | 52.76971 | 25856 ft | 477 kts | 301° |
| 2026-04-20 17:15 | 25.65999 | 52.73838 | 25856 ft | 477 kts | 301° |
| 2026-04-20 17:15 | 25.67736 | 52.70698 | 25851 ft | 477 kts | 301° |
| 2026-04-20 17:15 | 25.69485 | 52.67574 | 25849 ft | 476 kts | 301° |
| 2026-04-20 17:16 | 25.71250 | 52.64464 | 25848 ft | 476 kts | 301° |
| 2026-04-20 17:16 | 25.73025 | 52.61360 | 25847 ft | 476 kts | 301° |
| 2026-04-20 17:16 | 25.74788 | 52.58285 | 25844 ft | 476 kts | 301° |
| 2026-04-20 17:16 | 25.76570 | 52.55172 | 25847 ft | 476 kts | 301° |
| 2026-04-20 17:17 | 25.78346 | 52.52059 | 25846 ft | 476 kts | 301° |
| 2026-04-20 17:17 | 25.80112 | 52.48952 | 25846 ft | 476 kts | 301° |
| 2026-04-20 17:17 | 25.81870 | 52.45846 | 25845 ft | 476 kts | 301° |
| 2026-04-20 17:17 | 25.83634 | 52.42724 | 25846 ft | 475 kts | 301° |
| 2026-04-20 17:18 | 25.85367 | 52.39653 | 25846 ft | 475 kts | 301° |
| 2026-04-20 17:18 | 25.87128 | 52.36530 | 25843 ft | 475 kts | 301° |
| 2026-04-20 17:18 | 25.88883 | 52.33418 | 25844 ft | 475 kts | 301° |
| 2026-04-20 17:18 | 25.90640 | 52.30306 | 25845 ft | 475 kts | 301° |
| 2026-04-20 17:19 | 25.92381 | 52.27226 | 25845 ft | 474 kts | 301° |
| 2026-04-20 17:19 | 25.94137 | 52.24117 | 25846 ft | 474 kts | 301° |
| 2026-04-20 17:19 | 25.95896 | 52.20999 | 25845 ft | 474 kts | 301° |
| 2026-04-20 17:19 | 25.97645 | 52.17896 | 25848 ft | 474 kts | 301° |
| 2026-04-20 17:20 | 25.99394 | 52.14790 | 25850 ft | 474 kts | 301° |
| 2026-04-20 17:20 | 26.01126 | 52.11711 | 25848 ft | 473 kts | 301° |
| 2026-04-20 17:20 | 26.02870 | 52.08601 | 25848 ft | 473 kts | 300° |
| 2026-04-20 17:20 | 26.04609 | 52.05495 | 25850 ft | 473 kts | 300° |
| 2026-04-20 17:21 | 26.06349 | 52.02387 | 25849 ft | 473 kts | 300° |
| 2026-04-20 17:21 | 26.08093 | 51.99274 | 25846 ft | 473 kts | 300° |
| 2026-04-20 17:21 | 26.09834 | 51.96167 | 25844 ft | 473 kts | 300° |
| 2026-04-20 17:21 | 26.11577 | 51.93057 | 25844 ft | 473 kts | 300° |
| 2026-04-20 17:22 | 26.13318 | 51.89949 | 25846 ft | 473 kts | 300° |
| 2026-04-20 17:22 | 26.15051 | 51.86851 | 25843 ft | 467 kts | 300° |
| 2026-04-20 17:22 | 26.16708 | 51.83891 | 25717 ft | 434 kts | 300° |
| 2026-04-20 17:22 | 26.18227 | 51.81175 | 25534 ft | 405 kts | 300° |
| 2026-04-20 17:23 | 26.19682 | 51.78570 | 24962 ft | 389 kts | 300° |
| 2026-04-20 17:23 | 26.21095 | 51.76034 | 24215 ft | 382 kts | 300° |
| 2026-04-20 17:23 | 26.22485 | 51.73535 | 23434 ft | 378 kts | 300° |
| 2026-04-20 17:23 | 26.23865 | 51.71051 | 22539 ft | 374 kts | 300° |
| 2026-04-20 17:24 | 26.25221 | 51.68604 | 21695 ft | 369 kts | 300° |
| 2026-04-20 17:24 | 26.26560 | 51.66189 | 20890 ft | 364 kts | 300° |
| 2026-04-20 17:24 | 26.27892 | 51.63794 | 20237 ft | 363 kts | 300° |
| 2026-04-20 17:24 | 26.29199 | 51.61445 | 19827 ft | 359 kts | 300° |
| 2026-04-20 17:25 | 26.30516 | 51.59083 | 19403 ft | 357 kts | 300° |
| 2026-04-20 17:25 | 26.31822 | 51.56741 | 18972 ft | 354 kts | 300° |
| 2026-04-20 17:25 | 26.33117 | 51.54416 | 18471 ft | 350 kts | 300° |
| 2026-04-20 17:25 | 26.34395 | 51.52122 | 17804 ft | 345 kts | 300° |
| 2026-04-20 17:26 | 26.35655 | 51.49852 | 17015 ft | 342 kts | 300° |
| 2026-04-20 17:26 | 26.36883 | 51.47635 | 16283 ft | 338 kts | 300° |
| 2026-04-20 17:26 | 26.38108 | 51.45419 | 15562 ft | 334 kts | 300° |
| 2026-04-20 17:26 | 26.39320 | 51.43229 | 14859 ft | 330 kts | 300° |
| 2026-04-20 17:27 | 26.40517 | 51.41064 | 14180 ft | 326 kts | 300° |
| 2026-04-20 17:27 | 26.41704 | 51.38918 | 13481 ft | 323 kts | 300° |
| 2026-04-20 17:27 | 26.42783 | 51.36741 | 12729 ft | 318 kts | 293° |
| 2026-04-20 17:27 | 26.43589 | 51.34461 | 12082 ft | 314 kts | 288° |
| 2026-04-20 17:28 | 26.44302 | 51.32185 | 11963 ft | 312 kts | 287° |
| 2026-04-20 17:28 | 26.44924 | 51.29857 | 11992 ft | 313 kts | 279° |
| 2026-04-20 17:28 | 26.45178 | 51.27452 | 11995 ft | 311 kts | 270° |
| 2026-04-20 17:28 | 26.45032 | 51.25072 | 11701 ft | 306 kts | 256° |
| 2026-04-20 17:29 | 26.44134 | 51.22934 | 11273 ft | 306 kts | 236° |
| 2026-04-20 17:29 | 26.42829 | 51.21063 | 10675 ft | 304 kts | 233° |
| 2026-04-20 17:29 | 26.41518 | 51.19271 | 10299 ft | 295 kts | 233° |
| 2026-04-20 17:29 | 26.40254 | 51.17560 | 10111 ft | 277 kts | 233° |
| 2026-04-20 17:30 | 26.39046 | 51.15928 | 9634 ft | 269 kts | 233° |
| 2026-04-20 17:30 | 26.37865 | 51.14323 | 9020 ft | 265 kts | 233° |
| 2026-04-20 17:30 | 26.36707 | 51.12733 | 8383 ft | 263 kts | 233° |
| 2026-04-20 17:30 | 26.35561 | 51.11146 | 7751 ft | 261 kts | 233° |
| 2026-04-20 17:31 | 26.34434 | 51.09559 | 7236 ft | 261 kts | 233° |
| 2026-04-20 17:31 | 26.33322 | 51.07970 | 6875 ft | 259 kts | 233° |
| 2026-04-20 17:31 | 26.32218 | 51.06385 | 6491 ft | 258 kts | 233° |
| 2026-04-20 17:31 | 26.31127 | 51.04803 | 6104 ft | 257 kts | 233° |
| 2026-04-20 17:32 | 26.30064 | 51.03247 | 5479 ft | 256 kts | 233° |
| 2026-04-20 17:32 | 26.28986 | 51.01653 | 4898 ft | 257 kts | 233° |
| 2026-04-20 17:32 | 26.27896 | 51.00034 | 4252 ft | 264 kts | 233° |
| 2026-04-20 17:32 | 26.26799 | 50.98377 | 3761 ft | 266 kts | 232° |
| 2026-04-20 17:33 | 26.25708 | 50.96701 | 3293 ft | 268 kts | 233° |
| 2026-04-20 17:33 | 26.24622 | 50.95015 | 3030 ft | 270 kts | 233° |
| 2026-04-20 17:33 | 26.23536 | 50.93330 | 2989 ft | 267 kts | 233° |
| 2026-04-20 17:33 | 26.22495 | 50.91715 | 2973 ft | 246 kts | 233° |
| 2026-04-20 17:34 | 26.21530 | 50.90212 | 2694 ft | 233 kts | 233° |
| 2026-04-20 17:34 | 26.20596 | 50.88746 | 2296 ft | 232 kts | 233° |
| 2026-04-20 17:34 | 26.19664 | 50.87277 | 2038 ft | 231 kts | 233° |
| 2026-04-20 17:34 | 26.18724 | 50.85805 | 2000 ft | 234 kts | 233° |
| 2026-04-20 17:35 | 26.17742 | 50.84347 | 2000 ft | 235 kts | 231° |
| 2026-04-20 17:35 | 26.17047 | 50.82759 | 1993 ft | 222 kts | 262° |
| 2026-04-20 17:35 | 26.16964 | 50.81053 | 2007 ft | 220 kts | 273° |
| 2026-04-20 17:35 | 26.17424 | 50.79518 | 1997 ft | 211 kts | 313° |
| 2026-04-20 17:36 | 26.18419 | 50.78330 | 2004 ft | 211 kts | 309° |
| 2026-04-20 17:36 | 26.19270 | 50.76921 | 2020 ft | 231 kts | 304° |
| 2026-04-20 17:36 | 26.19837 | 50.75311 | 1995 ft | 222 kts | 277° |
| 2026-04-20 17:36 | 26.19944 | 50.73614 | 1999 ft | 218 kts | 283° |
| 2026-04-20 17:37 | 26.20495 | 50.72011 | 2057 ft | 238 kts | 298° |
| 2026-04-20 17:37 | 26.21323 | 50.70287 | 2249 ft | 270 kts | 302° |
| 2026-04-20 17:37 | 26.22271 | 50.68597 | 2660 ft | 241 kts | 305° |
| 2026-04-20 17:37 | 26.23303 | 50.67157 | 3754 ft | 235 kts | 314° |
| 2026-04-20 17:38 | 26.24533 | 50.65980 | 4848 ft | 233 kts | 322° |
| 2026-04-20 17:38 | 26.25936 | 50.65080 | 5911 ft | 232 kts | 330° |
| 2026-04-20 17:38 | 26.27368 | 50.64341 | 6117 ft | 225 kts | 317° |
| 2026-04-20 17:38 | 26.28502 | 50.63143 | 5394 ft | 227 kts | 306° |
| 2026-04-20 17:39 | 26.29646 | 50.61900 | 4757 ft | 233 kts | 328° |
| 2026-04-20 17:39 | 26.31200 | 50.61439 | 4169 ft | 234 kts | 3° |
| 2026-04-20 17:39 | 26.32700 | 50.61966 | 3629 ft | 229 kts | 37° |
| 2026-04-20 17:39 | 26.33681 | 50.63294 | 3091 ft | 220 kts | 71° |
| 2026-04-20 17:40 | 26.33940 | 50.64941 | 2588 ft | 215 kts | 97° |
| 2026-04-20 17:40 | 26.33518 | 50.66526 | 2112 ft | 211 kts | 111° |
| 2026-04-20 17:40 | 26.32929 | 50.68014 | 2002 ft | 211 kts | 112° |
| 2026-04-20 17:40 | 26.32307 | 50.69513 | 2006 ft | 214 kts | 113° |
| 2026-04-20 17:41 | 26.31678 | 50.71017 | 2008 ft | 215 kts | 113° |
| 2026-04-20 17:41 | 26.31055 | 50.72501 | 2007 ft | 213 kts | 113° |
| 2026-04-20 17:41 | 26.30426 | 50.73999 | 2007 ft | 213 kts | 113° |
| 2026-04-20 17:41 | 26.29796 | 50.75500 | 2007 ft | 215 kts | 113° |
| 2026-04-20 17:42 | 26.29119 | 50.76981 | 2003 ft | 215 kts | 120° |
| 2026-04-20 17:42 | 26.28286 | 50.78370 | 2004 ft | 215 kts | 122° |
| 2026-04-20 17:42 | 26.27424 | 50.79739 | 2002 ft | 216 kts | 123° |
| 2026-04-20 17:42 | 26.26557 | 50.81104 | 2006 ft | 216 kts | 123° |
| 2026-04-20 17:43 | 26.25592 | 50.82387 | 1991 ft | 214 kts | 142° |
| 2026-04-20 17:43 | 26.24279 | 50.82964 | 2034 ft | 208 kts | 176° |
| 2026-04-20 17:43 | 26.22948 | 50.82507 | 2525 ft | 193 kts | 217° |
| 2026-04-20 17:43 | 26.22008 | 50.81455 | 2641 ft | 191 kts | 218° |
| 2026-04-20 17:44 | 26.20886 | 50.80835 | 2511 ft | 175 kts | 195° |
| 2026-04-20 17:44 | 26.19803 | 50.80218 | 2271 ft | 175 kts | 210° |
| 2026-04-20 17:44 | 26.18817 | 50.79402 | 2027 ft | 178 kts | 226° |
| 2026-04-20 17:44 | 26.18384 | 50.78129 | 1993 ft | 181 kts | 278° |
| 2026-04-20 17:45 | 26.18975 | 50.76927 | 2029 ft | 195 kts | 320° |
| 2026-04-20 17:45 | 26.19983 | 50.75773 | 2014 ft | 218 kts | 307° |
| 2026-04-20 17:45 | 26.20794 | 50.74314 | 1902 ft | 223 kts | 303° |
| 2026-04-20 17:45 | 26.21612 | 50.72843 | 1660 ft | 221 kts | 305° |
| 2026-04-20 17:46 | 26.22153 | 50.71896 | 1473 ft | 214 kts | 306° |
| 2026-04-20 17:46 | 26.22916 | 50.70573 | 1217 ft | 191 kts | 306° |
| 2026-04-20 17:46 | 26.23593 | 50.69401 | 994 ft | 170 kts | 306° |
| 2026-04-20 17:46 | 26.24206 | 50.68342 | 792 ft | 155 kts | 306° |
| 2026-04-20 17:47 | 26.24766 | 50.67374 | 601 ft | 144 kts | 306° |
| 2026-04-20 17:47 | 26.25288 | 50.66470 | 420 ft | 137 kts | 306° |
| 2026-04-20 17:47 | 26.25808 | 50.65573 | 236 ft | 135 kts | 307° |
| 2026-04-20 17:47 | 26.26310 | 50.64704 | 48 ft | 135 kts | 306° |
| 2026-04-20 17:48 | 26.26764 | 50.63919 | 19 ft | 99 kts | 303° |
| 2026-04-20 17:48 | 26.27057 | 50.63411 | 14 ft | 61 kts | 303° |
| 2026-04-20 17:48 | 26.27223 | 50.63112 | 16 ft | 28 kts | 291° |
| 2026-04-20 17:48 | 26.27256 | 50.62904 | 17 ft | 27 kts | 272° |
| 2026-04-20 17:49 | 26.27214 | 50.62826 | 19 ft | 9 kts | 186° |
| 2026-04-20 17:49 | 26.27174 | 50.62860 | 20 ft | 6 kts | 126° |
| 2026-04-20 17:49 | 26.27154 | 50.62891 | 23 ft | 4 kts | 124° |
| 2026-04-20 17:49 | 26.27145 | 50.62905 | 21 ft | 1 kts | 130° |
| 2026-04-20 17:50 | 26.27101 | 50.62903 | 22 ft | 14 kts | 205° |
| 2026-04-20 17:50 | 26.27096 | 50.62900 | 22 ft | 0 kts | 205° |
| 2026-04-20 17:50 | 26.27073 | 50.62887 | 22 ft | 11 kts | 210° |
| 2026-04-20 17:51 | 26.27015 | 50.62841 | 21 ft | 5 kts | 212° |
| 2026-04-20 17:51 | 26.26986 | 50.62821 | 21 ft | 5 kts | 212° |
| 2026-04-20 17:51 | 26.26984 | 50.62819 | 21 ft | 0 kts | 212° |